sensor_id;sensor_type;location;lat;lon;timestamp;pressure;altitude;pressure_sealevel;temperature;humidity
34297;BME280;20564;42.902;25.336;2023-05-10T00:00:04;97633.38;;;9.73;100.00
34297;BME280;20564;42.902;25.336;2023-05-10T00:02:32;97629.88;;;9.72;100.00
34297;BME280;20564;42.902;25.336;2023-05-10T00:05:00;97630.16;;;9.69;100.00
34297;BME280;20564;42.902;25.336;2023-05-10T00:07:27;97623.56;;;9.75;100.00
34297;BME280;20564;42.902;25.336;2023-05-10T00:09:54;97633.25;;;9.74;100.00
34297;BME280;20564;42.902;25.336;2023-05-10T00:12:21;97621.91;;;9.74;100.00
34297;BME280;20564;42.902;25.336;2023-05-10T00:14:50;97620.34;;;9.71;100.00
34297;BME280;20564;42.902;25.336;2023-05-10T00:17:18;97610.31;;;9.76;100.00
34297;BME280;20564;42.902;25.336;2023-05-10T00:19:45;97617.47;;;9.74;100.00
34297;BME280;20564;42.902;25.336;2023-05-10T00:22:12;97607.69;;;9.65;100.00
34297;BME280;20564;42.902;25.336;2023-05-10T00:24:39;97614.19;;;9.50;100.00
34297;BME280;20564;42.902;25.336;2023-05-10T00:27:07;97612.50;;;9.49;100.00
34297;BME280;20564;42.902;25.336;2023-05-10T00:29:34;97612.50;;;9.49;100.00
34297;BME280;20564;42.902;25.336;2023-05-10T00:32:01;97610.84;;;9.48;100.00
34297;BME280;20564;42.902;25.336;2023-05-10T00:34:29;97610.84;;;9.48;100.00
34297;BME280;20564;42.902;25.336;2023-05-10T00:36:56;97609.06;;;9.48;100.00
34297;BME280;20564;42.902;25.336;2023-05-10T00:39:23;97605.13;;;9.42;100.00
34297;BME280;20564;42.902;25.336;2023-05-10T00:41:50;97603.44;;;9.41;100.00
34297;BME280;20564;42.902;25.336;2023-05-10T00:44:18;97604.53;;;9.39;100.00
34297;BME280;20564;42.902;25.336;2023-05-10T00:46:45;97596.06;;;9.35;100.00
34297;BME280;20564;42.902;25.336;2023-05-10T00:49:13;97596.78;;;9.37;100.00
34297;BME280;20564;42.902;25.336;2023-05-10T00:51:41;97594.84;;;9.39;100.00
34297;BME280;20564;42.902;25.336;2023-05-10T00:54:11;97601.31;;;9.35;100.00
34297;BME280;20564;42.902;25.336;2023-05-10T00:56:40;97596.19;;;9.34;100.00
34297;BME280;20564;42.902;25.336;2023-05-10T00:59:10;97596.56;;;9.29;100.00
34297;BME280;20564;42.902;25.336;2023-05-10T01:01:38;97602.75;;;9.28;100.00
34297;BME280;20564;42.902;25.336;2023-05-10T01:04:05;97600.50;;;9.24;100.00
34297;BME280;20564;42.902;25.336;2023-05-10T01:06:33;97599.22;;;9.18;100.00
34297;BME280;20564;42.902;25.336;2023-05-10T01:09:01;97595.03;;;9.15;100.00
34297;BME280;20564;42.902;25.336;2023-05-10T01:11:29;97594.88;;;9.17;100.00
34297;BME280;20564;42.902;25.336;2023-05-10T01:13:57;97600.88;;;9.19;100.00
34297;BME280;20564;42.902;25.336;2023-05-10T01:16:24;97589.88;;;9.14;100.00
34297;BME280;20564;42.902;25.336;2023-05-10T01:18:54;97587.25;;;9.14;100.00
34297;BME280;20564;42.902;25.336;2023-05-10T01:21:47;97591.66;;;9.13;100.00
34297;BME280;20564;42.902;25.336;2023-05-10T01:27:47;97584.19;;;8.98;100.00
34297;BME280;20564;42.902;25.336;2023-05-10T01:36:35;97579.38;;;9.03;100.00
34297;BME280;20564;42.902;25.336;2023-05-10T01:39:11;97579.38;;;9.03;100.00
34297;BME280;20564;42.902;25.336;2023-05-10T01:41:49;97583.44;;;8.96;100.00
34297;BME280;20564;42.902;25.336;2023-05-10T01:47:07;97574.88;;;8.93;100.00
34297;BME280;20564;42.902;25.336;2023-05-10T01:49:49;97580.34;;;8.90;100.00
34297;BME280;20564;42.902;25.336;2023-05-10T01:52:25;97579.16;;;8.83;100.00
34297;BME280;20564;42.902;25.336;2023-05-10T01:54:56;97589.91;;;8.80;100.00
34297;BME280;20564;42.902;25.336;2023-05-10T01:57:32;97591.81;;;8.78;100.00
34297;BME280;20564;42.902;25.336;2023-05-10T02:00:02;97590.41;;;8.85;100.00
34297;BME280;20564;42.902;25.336;2023-05-10T02:02:39;97587.78;;;8.85;100.00
34297;BME280;20564;42.902;25.336;2023-05-10T02:05:09;97587.28;;;8.80;100.00
34297;BME280;20564;42.902;25.336;2023-05-10T02:07:38;97581.78;;;8.72;100.00
34297;BME280;20564;42.902;25.336;2023-05-10T02:10:07;97581.94;;;8.71;100.00
34297;BME280;20564;42.902;25.336;2023-05-10T02:12:41;97577.00;;;8.66;100.00
34297;BME280;20564;42.902;25.336;2023-05-10T02:15:09;97567.00;;;8.60;100.00
34297;BME280;20564;42.902;25.336;2023-05-10T02:17:39;97567.00;;;8.60;100.00
34297;BME280;20564;42.902;25.336;2023-05-10T02:20:07;97570.56;;;8.59;100.00
34297;BME280;20564;42.902;25.336;2023-05-10T02:22:36;97569.38;;;8.52;100.00
34297;BME280;20564;42.902;25.336;2023-05-10T02:25:09;97577.13;;;8.53;100.00
34297;BME280;20564;42.902;25.336;2023-05-10T02:27:38;97564.72;;;8.55;100.00
34297;BME280;20564;42.902;25.336;2023-05-10T02:30:10;97569.38;;;8.52;100.00
34297;BME280;20564;42.902;25.336;2023-05-10T02:32:38;97565.66;;;8.43;100.00
34297;BME280;20564;42.902;25.336;2023-05-10T02:35:07;97563.41;;;8.38;100.00
34297;BME280;20564;42.902;25.336;2023-05-10T02:37:36;97560.03;;;8.36;100.00
34297;BME280;20564;42.902;25.336;2023-05-10T02:40:05;97557.94;;;8.41;100.00
34297;BME280;20564;42.902;25.336;2023-05-10T02:42:36;97564.84;;;8.42;100.00
34297;BME280;20564;42.902;25.336;2023-05-10T02:45:08;97554.72;;;8.38;100.00
34297;BME280;20564;42.902;25.336;2023-05-10T02:47:37;97556.94;;;8.31;100.00
34297;BME280;20564;42.902;25.336;2023-05-10T02:50:06;97560.50;;;8.30;100.00
34297;BME280;20564;42.902;25.336;2023-05-10T02:55:26;97567.66;;;8.28;100.00
34297;BME280;20564;42.902;25.336;2023-05-10T02:58:01;97564.06;;;8.29;100.00
34297;BME280;20564;42.902;25.336;2023-05-10T03:00:29;97571.00;;;8.30;100.00
34297;BME280;20564;42.902;25.336;2023-05-10T03:02:59;97572.06;;;8.28;100.00
34297;BME280;20564;42.902;25.336;2023-05-10T03:05:27;97565.84;;;8.17;100.00
34297;BME280;20564;42.902;25.336;2023-05-10T03:07:54;97566.66;;;8.18;100.00
34297;BME280;20564;42.902;25.336;2023-05-10T03:10:27;97583.50;;;8.15;100.00
34297;BME280;20564;42.902;25.336;2023-05-10T03:18:15;97578.81;;;8.19;100.00
34297;BME280;20564;42.902;25.336;2023-05-10T03:20:50;97569.06;;;8.21;100.00
34297;BME280;20564;42.902;25.336;2023-05-10T03:23:20;97572.88;;;8.28;100.00
34297;BME280;20564;42.902;25.336;2023-05-10T03:25:48;97576.81;;;8.22;100.00
34297;BME280;20564;42.902;25.336;2023-05-10T03:28:18;97580.16;;;8.25;100.00
34297;BME280;20564;42.902;25.336;2023-05-10T03:30:48;97582.16;;;8.21;100.00
34297;BME280;20564;42.902;25.336;2023-05-10T03:33:18;97579.06;;;8.16;100.00
34297;BME280;20564;42.902;25.336;2023-05-10T03:35:45;97587.66;;;8.18;100.00
34297;BME280;20564;42.902;25.336;2023-05-10T03:38:12;97579.06;;;8.16;100.00
34297;BME280;20564;42.902;25.336;2023-05-10T03:40:39;97578.81;;;8.19;100.00
34297;BME280;20564;42.902;25.336;2023-05-10T03:43:09;97580.28;;;8.23;100.00
34297;BME280;20564;42.902;25.336;2023-05-10T03:45:36;97578.97;;;8.29;100.00
34297;BME280;20564;42.902;25.336;2023-05-10T03:48:04;97577.69;;;8.34;100.00
34297;BME280;20564;42.902;25.336;2023-05-10T03:50:31;97565.28;;;8.36;100.00
34297;BME280;20564;42.902;25.336;2023-05-10T03:52:58;97567.22;;;8.45;100.00
34297;BME280;20564;42.902;25.336;2023-05-10T03:55:36;97575.09;;;8.45;100.00
34297;BME280;20564;42.902;25.336;2023-05-10T03:58:03;97580.13;;;8.49;100.00
34297;BME280;20564;42.902;25.336;2023-05-10T04:00:31;97585.84;;;8.54;100.00
34297;BME280;20564;42.902;25.336;2023-05-10T04:03:00;97588.69;;;8.62;100.00
34297;BME280;20564;42.902;25.336;2023-05-10T04:05:28;97592.28;;;8.72;100.00
34297;BME280;20564;42.902;25.336;2023-05-10T04:07:56;97587.19;;;8.82;100.00
34297;BME280;20564;42.902;25.336;2023-05-10T04:10:24;97583.44;;;8.96;100.00
34297;BME280;20564;42.902;25.336;2023-05-10T04:12:51;97588.69;;;9.18;100.00
34297;BME280;20564;42.902;25.336;2023-05-10T04:15:19;97583.16;;;9.44;100.00
34297;BME280;20564;42.902;25.336;2023-05-10T04:17:49;97575.66;;;9.71;100.00
34297;BME280;20564;42.902;25.336;2023-05-10T04:20:21;97575.69;;;9.92;100.00
34297;BME280;20564;42.902;25.336;2023-05-10T04:22:48;97574.28;;;10.09;100.00
34297;BME280;20564;42.902;25.336;2023-05-10T04:25:16;97575.44;;;10.16;100.00
34297;BME280;20564;42.902;25.336;2023-05-10T04:27:44;97582.13;;;10.20;100.00
34297;BME280;20564;42.902;25.336;2023-05-10T04:30:14;97573.53;;;10.18;100.00
34297;BME280;20564;42.902;25.336;2023-05-10T04:32:47;97574.72;;;10.25;100.00
34297;BME280;20564;42.902;25.336;2023-05-10T04:35:24;97569.66;;;10.22;100.00
34297;BME280;20564;42.902;25.336;2023-05-10T04:37:57;97572.78;;;10.27;100.00
34297;BME280;20564;42.902;25.336;2023-05-10T04:40:25;97573.03;;;10.24;100.00
34297;BME280;20564;42.902;25.336;2023-05-10T04:42:52;97576.25;;;10.28;99.07
34297;BME280;20564;42.902;25.336;2023-05-10T04:45:39;97574.56;;;10.27;100.00
34297;BME280;20564;42.902;25.336;2023-05-10T04:48:11;97572.72;;;10.38;100.00
34297;BME280;20564;42.902;25.336;2023-05-10T04:50:39;97586.06;;;10.47;100.00
34297;BME280;20564;42.902;25.336;2023-05-10T04:53:07;97578.09;;;10.58;100.00
34297;BME280;20564;42.902;25.336;2023-05-10T04:55:35;97573.88;;;10.76;100.00
34297;BME280;20564;42.902;25.336;2023-05-10T04:58:03;97569.50;;;10.86;100.00
34297;BME280;20564;42.902;25.336;2023-05-10T05:00:33;97571.47;;;11.04;100.00
34297;BME280;20564;42.902;25.336;2023-05-10T05:03:01;97580.66;;;11.09;97.38
34297;BME280;20564;42.902;25.336;2023-05-10T05:05:30;97574.88;;;11.16;93.89
34297;BME280;20564;42.902;25.336;2023-05-10T05:07:58;97577.97;;;11.30;93.92
34297;BME280;20564;42.902;25.336;2023-05-10T05:10:25;97568.03;;;11.63;94.44
34297;BME280;20564;42.902;25.336;2023-05-10T05:12:53;97565.84;;;11.97;92.12
34297;BME280;20564;42.902;25.336;2023-05-10T05:15:20;97571.09;;;12.26;83.95
34297;BME280;20564;42.902;25.336;2023-05-10T05:17:47;97559.28;;;12.68;80.95
34297;BME280;20564;42.902;25.336;2023-05-10T05:20:14;97565.81;;;13.11;79.35
34297;BME280;20564;42.902;25.336;2023-05-10T05:22:42;97558.88;;;13.55;79.85
34297;BME280;20564;42.902;25.336;2023-05-10T05:25:12;97562.66;;;13.70;73.04
34297;BME280;20564;42.902;25.336;2023-05-10T05:27:39;97556.31;;;13.63;73.59
34297;BME280;20564;42.902;25.336;2023-05-10T05:30:07;97552.50;;;13.75;72.38
34297;BME280;20564;42.902;25.336;2023-05-10T05:32:34;97554.50;;;13.82;70.63
34297;BME280;20564;42.902;25.336;2023-05-10T05:35:04;97557.84;;;13.84;71.35
34297;BME280;20564;42.902;25.336;2023-05-10T05:37:33;97556.03;;;13.66;69.67
34297;BME280;20564;42.902;25.336;2023-05-10T05:40:04;97557.22;;;13.54;67.97
34297;BME280;20564;42.902;25.336;2023-05-10T05:42:33;97560.09;;;13.43;66.53
34297;BME280;20564;42.902;25.336;2023-05-10T05:45:04;97559.03;;;13.36;66.53
34297;BME280;20564;42.902;25.336;2023-05-10T05:47:33;97557.81;;;13.48;68.02
34297;BME280;20564;42.902;25.336;2023-05-10T05:50:00;97564.25;;;13.63;63.86
34297;BME280;20564;42.902;25.336;2023-05-10T05:52:30;97566.09;;;13.98;62.39
34297;BME280;20564;42.902;25.336;2023-05-10T05:54:58;97551.78;;;14.09;58.64
34297;BME280;20564;42.902;25.336;2023-05-10T05:57:26;97558.22;;;14.33;56.65
34297;BME280;20564;42.902;25.336;2023-05-10T05:59:53;97566.59;;;14.64;59.97
34297;BME280;20564;42.902;25.336;2023-05-10T06:02:31;97565.28;;;15.02;56.74
34297;BME280;20564;42.902;25.336;2023-05-10T06:04:59;97559.09;;;15.28;54.21
34297;BME280;20564;42.902;25.336;2023-05-10T06:07:26;97558.00;;;15.47;55.18
34297;BME280;20564;42.902;25.336;2023-05-10T06:09:53;97562.16;;;15.49;55.11
34297;BME280;20564;42.902;25.336;2023-05-10T06:12:20;97561.00;;;15.60;58.30
34297;BME280;20564;42.902;25.336;2023-05-10T06:14:50;97549.56;;;15.43;52.80
34297;BME280;20564;42.902;25.336;2023-05-10T06:17:17;97567.44;;;15.49;57.22
34297;BME280;20564;42.902;25.336;2023-05-10T06:19:44;97565.81;;;15.64;55.83
34297;BME280;20564;42.902;25.336;2023-05-10T06:22:11;97564.56;;;15.69;56.98
34297;BME280;20564;42.902;25.336;2023-05-10T06:24:38;97561.06;;;15.68;56.21
34297;BME280;20564;42.902;25.336;2023-05-10T06:27:06;97553.94;;;15.69;56.21
34297;BME280;20564;42.902;25.336;2023-05-10T06:29:33;97563.91;;;15.83;55.26
34297;BME280;20564;42.902;25.336;2023-05-10T06:32:01;97561.38;;;15.65;54.67
34297;BME280;20564;42.902;25.336;2023-05-10T06:34:31;97570.47;;;15.54;54.08
34297;BME280;20564;42.902;25.336;2023-05-10T06:36:58;97568.38;;;15.24;54.15
34297;BME280;20564;42.902;25.336;2023-05-10T06:39:27;97575.59;;;15.05;55.40
34297;BME280;20564;42.902;25.336;2023-05-10T06:41:54;97576.59;;;15.04;55.31
34297;BME280;20564;42.902;25.336;2023-05-10T06:44:21;97576.59;;;15.12;55.80
34297;BME280;20564;42.902;25.336;2023-05-10T06:46:48;97574.78;;;15.13;54.94
34297;BME280;20564;42.902;25.336;2023-05-10T06:49:16;97565.38;;;15.18;56.44
34297;BME280;20564;42.902;25.336;2023-05-10T06:51:44;97568.72;;;15.29;54.98
34297;BME280;20564;42.902;25.336;2023-05-10T06:54:11;97570.47;;;15.62;56.03
34297;BME280;20564;42.902;25.336;2023-05-10T06:56:38;97566.59;;;16.24;53.40
34297;BME280;20564;42.902;25.336;2023-05-10T06:59:06;97564.59;;;16.42;51.48
34297;BME280;20564;42.902;25.336;2023-05-10T07:01:37;97560.09;;;16.51;53.32
34297;BME280;20564;42.902;25.336;2023-05-10T07:04:09;97562.56;;;16.77;52.47
34297;BME280;20564;42.902;25.336;2023-05-10T07:06:37;97559.03;;;16.84;50.96
34297;BME280;20564;42.902;25.336;2023-05-10T07:09:10;97556.22;;;16.70;51.78
34297;BME280;20564;42.902;25.336;2023-05-10T07:11:38;97561.56;;;16.86;54.29
34297;BME280;20564;42.902;25.336;2023-05-10T07:14:05;97558.31;;;17.07;51.31
34297;BME280;20564;42.902;25.336;2023-05-10T07:16:35;97560.19;;;17.29;49.61
34297;BME280;20564;42.902;25.336;2023-05-10T07:19:02;97560.31;;;17.44;49.98
34297;BME280;20564;42.902;25.336;2023-05-10T07:21:29;97565.53;;;17.60;50.26
34297;BME280;20564;42.902;25.336;2023-05-10T07:23:57;97561.47;;;17.81;47.38
34297;BME280;20564;42.902;25.336;2023-05-10T07:26:24;97571.72;;;17.84;48.17
34297;BME280;20564;42.902;25.336;2023-05-10T07:28:55;97561.16;;;17.68;47.23
34297;BME280;20564;42.902;25.336;2023-05-10T07:31:25;97560.59;;;17.80;48.13
34297;BME280;20564;42.902;25.336;2023-05-10T07:33:52;97568.31;;;17.98;48.09
34297;BME280;20564;42.902;25.336;2023-05-10T07:36:20;97565.59;;;18.29;47.09
34297;BME280;20564;42.902;25.336;2023-05-10T07:38:49;97563.47;;;18.25;46.14
34297;BME280;20564;42.902;25.336;2023-05-10T07:41:16;97569.13;;;17.99;46.81
34297;BME280;20564;42.902;25.336;2023-05-10T07:43:43;97574.53;;;17.59;47.95
34297;BME280;20564;42.902;25.336;2023-05-10T07:46:11;97580.69;;;17.60;47.77
34297;BME280;20564;42.902;25.336;2023-05-10T07:48:39;97579.06;;;17.51;49.03
34297;BME280;20564;42.902;25.336;2023-05-10T07:51:06;97577.66;;;17.32;47.74
34297;BME280;20564;42.902;25.336;2023-05-10T07:53:36;97574.88;;;17.56;48.50
34297;BME280;20564;42.902;25.336;2023-05-10T07:56:24;97575.25;;;17.85;47.66
34297;BME280;20564;42.902;25.336;2023-05-10T07:58:54;97568.50;;;17.97;47.37
34297;BME280;20564;42.902;25.336;2023-05-10T08:01:25;97574.91;;;18.11;47.94
34297;BME280;20564;42.902;25.336;2023-05-10T08:04:02;97567.38;;;18.14;46.74
34297;BME280;20564;42.902;25.336;2023-05-10T08:06:32;97570.53;;;18.18;46.21
34297;BME280;20564;42.902;25.336;2023-05-10T08:09:04;97566.09;;;18.10;45.94
34297;BME280;20564;42.902;25.336;2023-05-10T08:11:34;97566.63;;;18.43;45.35
34297;BME280;20564;42.902;25.336;2023-05-10T08:14:02;97564.63;;;18.60;44.63
34297;BME280;20564;42.902;25.336;2023-05-10T08:16:29;97564.03;;;18.73;45.66
34297;BME280;20564;42.902;25.336;2023-05-10T08:18:57;97556.78;;;19.11;44.13
34297;BME280;20564;42.902;25.336;2023-05-10T08:21:24;97559.31;;;19.34;43.52
34297;BME280;20564;42.902;25.336;2023-05-10T08:23:52;97561.03;;;18.76;44.27
34297;BME280;20564;42.902;25.336;2023-05-10T08:26:20;97566.34;;;18.76;45.55
34297;BME280;20564;42.902;25.336;2023-05-10T08:28:48;97567.47;;;18.44;43.17
34297;BME280;20564;42.902;25.336;2023-05-10T08:31:16;97572.66;;;17.99;44.69
34297;BME280;20564;42.902;25.336;2023-05-10T08:33:45;97577.94;;;17.45;45.37
34297;BME280;20564;42.902;25.336;2023-05-10T08:36:12;97570.28;;;17.42;47.19
34297;BME280;20564;42.902;25.336;2023-05-10T08:38:40;97561.69;;;17.32;46.31
34297;BME280;20564;42.902;25.336;2023-05-10T08:41:08;97556.03;;;17.35;46.05
34297;BME280;20564;42.902;25.336;2023-05-10T08:43:37;97552.69;;;17.33;46.46
34297;BME280;20564;42.902;25.336;2023-05-10T08:46:07;97552.19;;;17.38;48.76
34297;BME280;20564;42.902;25.336;2023-05-10T08:48:39;97542.94;;;17.56;47.99
34297;BME280;20564;42.902;25.336;2023-05-10T08:51:07;97551.63;;;17.50;46.06
34297;BME280;20564;42.902;25.336;2023-05-10T08:53:37;97544.84;;;17.40;46.75
34297;BME280;20564;42.902;25.336;2023-05-10T08:56:07;97555.00;;;17.44;46.38
34297;BME280;20564;42.902;25.336;2023-05-10T08:58:34;97550.84;;;17.02;48.07
34297;BME280;20564;42.902;25.336;2023-05-10T09:01:02;97552.78;;;17.17;48.02
34297;BME280;20564;42.902;25.336;2023-05-10T09:03:30;97551.47;;;17.44;45.88
34297;BME280;20564;42.902;25.336;2023-05-10T09:05:57;97546.63;;;17.47;44.61
34297;BME280;20564;42.902;25.336;2023-05-10T09:08:26;97561.69;;;17.32;44.22
34297;BME280;20564;42.902;25.336;2023-05-10T09:11:03;97562.63;;;17.08;45.41
34297;BME280;20564;42.902;25.336;2023-05-10T09:13:40;97560.09;;;17.15;47.52
34297;BME280;20564;42.902;25.336;2023-05-10T09:16:07;97557.00;;;17.42;47.37
34297;BME280;20564;42.902;25.336;2023-05-10T09:18:45;97563.31;;;17.41;47.58
34297;BME280;20564;42.902;25.336;2023-05-10T09:21:13;97561.75;;;17.24;46.92
34297;BME280;20564;42.902;25.336;2023-05-10T09:23:49;97560.72;;;16.77;48.64
34297;BME280;20564;42.902;25.336;2023-05-10T09:26:22;97553.25;;;16.64;51.14
34297;BME280;20564;42.902;25.336;2023-05-10T09:28:56;97554.13;;;16.32;49.28
34297;BME280;20564;42.902;25.336;2023-05-10T09:31:44;97551.81;;;16.21;50.58
34297;BME280;20564;42.902;25.336;2023-05-10T09:34:17;97550.81;;;16.14;49.29
34297;BME280;20564;42.902;25.336;2023-05-10T09:36:56;97546.66;;;16.20;51.17
34297;BME280;20564;42.902;25.336;2023-05-10T09:39:33;97542.16;;;16.36;51.58
34297;BME280;20564;42.902;25.336;2023-05-10T09:42:08;97541.53;;;16.34;49.64
34297;BME280;20564;42.902;25.336;2023-05-10T09:44:35;97548.97;;;16.39;49.30
34297;BME280;20564;42.902;25.336;2023-05-10T09:47:06;97557.28;;;16.28;48.75
34297;BME280;20564;42.902;25.336;2023-05-10T09:49:37;97553.66;;;16.12;48.93
34297;BME280;20564;42.902;25.336;2023-05-10T09:52:05;97555.28;;;16.30;48.23
34297;BME280;20564;42.902;25.336;2023-05-10T09:54:36;97551.28;;;16.50;48.51
34297;BME280;20564;42.902;25.336;2023-05-10T09:57:18;97547.72;;;16.91;48.39
34297;BME280;20564;42.902;25.336;2023-05-10T09:59:45;97550.97;;;17.48;47.83
34297;BME280;20564;42.902;25.336;2023-05-10T10:02:12;97540.22;;;17.65;47.42
34297;BME280;20564;42.902;25.336;2023-05-10T10:04:40;97538.66;;;18.01;50.94
34297;BME280;20564;42.902;25.336;2023-05-10T10:07:09;97531.09;;;18.28;44.19
34297;BME280;20564;42.902;25.336;2023-05-10T10:09:40;97526.00;;;18.41;45.13
34297;BME280;20564;42.902;25.336;2023-05-10T10:12:07;97528.16;;;18.75;45.19
34297;BME280;20564;42.902;25.336;2023-05-10T10:14:50;97523.66;;;19.06;45.09
34297;BME280;20564;42.902;25.336;2023-05-10T10:17:19;97528.00;;;18.92;45.35
34297;BME280;20564;42.902;25.336;2023-05-10T10:19:49;97514.47;;;18.93;44.83
34297;BME280;20564;42.902;25.336;2023-05-10T10:22:17;97518.34;;;19.06;42.81
34297;BME280;20564;42.902;25.336;2023-05-10T10:24:46;97519.38;;;19.26;42.62
34297;BME280;20564;42.902;25.336;2023-05-10T10:27:57;97515.09;;;19.10;41.48
34297;BME280;20564;42.902;25.336;2023-05-10T10:30:23;97517.53;;;19.26;43.00
34297;BME280;20564;42.902;25.336;2023-05-10T10:35:58;97501.31;;;19.79;42.50
34297;BME280;20564;42.902;25.336;2023-05-10T10:41:29;97507.53;;;19.65;41.42
34297;BME280;20564;42.902;25.336;2023-05-10T10:55:16;97520.91;;;18.99;42.78
34297;BME280;20564;42.902;25.336;2023-05-10T10:57:54;97518.34;;;19.06;42.21
34297;BME280;20564;42.902;25.336;2023-05-10T11:00:31;97524.75;;;18.67;42.36
34297;BME280;20564;42.902;25.336;2023-05-10T11:03:09;97517.53;;;18.38;42.84
34297;BME280;20564;42.902;25.336;2023-05-10T11:05:47;97515.25;;;18.64;43.73
34297;BME280;20564;42.902;25.336;2023-05-10T11:08:28;97509.56;;;18.52;42.19
34297;BME280;20564;42.902;25.336;2023-05-10T11:13:51;97514.25;;;18.36;44.22
34297;BME280;20564;42.902;25.336;2023-05-10T11:16:22;97520.88;;;18.54;43.96
34297;BME280;20564;42.902;25.336;2023-05-10T11:19:00;97504.03;;;18.39;43.61
34297;BME280;20564;42.902;25.336;2023-05-10T11:21:30;97512.84;;;18.25;43.53
34297;BME280;20564;42.902;25.336;2023-05-10T11:24:09;97513.03;;;18.53;43.95
34297;BME280;20564;42.902;25.336;2023-05-10T11:26:39;97520.25;;;18.82;44.45
34297;BME280;20564;42.902;25.336;2023-05-10T11:29:09;97510.38;;;19.12;44.53
34297;BME280;20564;42.902;25.336;2023-05-10T11:31:44;97502.53;;;19.62;41.53
34297;BME280;20564;42.902;25.336;2023-05-10T11:34:26;97505.88;;;19.85;42.25
34297;BME280;20564;42.902;25.336;2023-05-10T11:36:57;97502.31;;;19.78;40.48
34297;BME280;20564;42.902;25.336;2023-05-10T11:39:30;97509.28;;;19.58;41.92
34297;BME280;20564;42.902;25.336;2023-05-10T11:41:59;97509.75;;;19.61;42.12
34297;BME280;20564;42.902;25.336;2023-05-10T11:44:31;97510.03;;;19.00;41.91
34297;BME280;20564;42.902;25.336;2023-05-10T11:47:02;97505.81;;;18.62;42.12
34297;BME280;20564;42.902;25.336;2023-05-10T11:49:29;97509.56;;;18.52;42.60
34297;BME280;20564;42.902;25.336;2023-05-10T11:52:06;97503.13;;;18.62;43.75
34297;BME280;20564;42.902;25.336;2023-05-10T11:54:36;97513.69;;;18.40;43.30
34297;BME280;20564;42.902;25.336;2023-05-10T11:57:04;97504.03;;;18.39;44.06
34297;BME280;20564;42.902;25.336;2023-05-10T11:59:31;97500.72;;;18.37;44.33
34297;BME280;20564;42.902;25.336;2023-05-10T12:02:01;97503.41;;;18.67;44.68
34297;BME280;20564;42.902;25.336;2023-05-10T12:04:30;97500.31;;;18.78;44.46
34297;BME280;20564;42.902;25.336;2023-05-10T12:06:58;97489.94;;;18.83;42.87
34297;BME280;20564;42.902;25.336;2023-05-10T12:09:25;97492.66;;;19.04;43.10
34297;BME280;20564;42.902;25.336;2023-05-10T12:11:56;97493.09;;;19.08;44.47
34297;BME280;20564;42.902;25.336;2023-05-10T12:14:26;97491.50;;;19.28;43.57
34297;BME280;20564;42.902;25.336;2023-05-10T12:16:53;97483.94;;;19.32;42.62
34297;BME280;20564;42.902;25.336;2023-05-10T12:19:23;97480.66;;;19.51;42.84
34297;BME280;20564;42.902;25.336;2023-05-10T12:22:06;97488.44;;;19.46;42.26
34297;BME280;20564;42.902;25.336;2023-05-10T12:24:36;97484.13;;;19.67;42.80
34297;BME280;20564;42.902;25.336;2023-05-10T12:27:05;97477.88;;;19.60;41.61
34297;BME280;20564;42.902;25.336;2023-05-10T12:29:35;97487.06;;;19.36;43.00
34297;BME280;20564;42.902;25.336;2023-05-10T12:32:06;97480.13;;;19.41;42.38
34297;BME280;20564;42.902;25.336;2023-05-10T12:34:34;97484.19;;;19.37;42.90
34297;BME280;20564;42.902;25.336;2023-05-10T12:37:03;97475.97;;;19.54;42.50
34297;BME280;20564;42.902;25.336;2023-05-10T12:39:41;97458.94;;;19.97;41.96
34297;BME280;20564;42.902;25.336;2023-05-10T12:42:12;97476.91;;;20.10;42.18
34297;BME280;20564;42.902;25.336;2023-05-10T12:44:39;97456.97;;;19.85;42.86
34297;BME280;20564;42.902;25.336;2023-05-10T12:47:07;97472.84;;;19.50;41.87
34297;BME280;20564;42.902;25.336;2023-05-10T12:49:34;97464.28;;;19.18;42.27
34297;BME280;20564;42.902;25.336;2023-05-10T12:52:01;97462.03;;;19.00;41.94
34297;BME280;20564;42.902;25.336;2023-05-10T12:54:28;97470.28;;;18.46;42.68
34297;BME280;20564;42.902;25.336;2023-05-10T12:56:55;97462.38;;;18.38;44.40
34297;BME280;20564;42.902;25.336;2023-05-10T12:59:22;97464.06;;;18.69;44.73
34297;BME280;20564;42.902;25.336;2023-05-10T13:01:49;97454.34;;;18.76;42.34
34297;BME280;20564;42.902;25.336;2023-05-10T13:04:16;97454.41;;;18.53;43.52
34297;BME280;20564;42.902;25.336;2023-05-10T13:06:43;97455.06;;;18.40;44.00
34297;BME280;20564;42.902;25.336;2023-05-10T13:09:14;97446.59;;;18.37;44.40
34297;BME280;20564;42.902;25.336;2023-05-10T13:11:41;97448.06;;;18.39;45.13
34297;BME280;20564;42.902;25.336;2023-05-10T13:14:08;97458.28;;;18.50;45.51
34297;BME280;20564;42.902;25.336;2023-05-10T13:16:42;97461.00;;;18.42;44.97
34297;BME280;20564;42.902;25.336;2023-05-10T13:19:09;97455.22;;;18.53;43.22
34297;BME280;20564;42.902;25.336;2023-05-10T13:21:38;97454.59;;;18.66;43.86
34297;BME280;20564;42.902;25.336;2023-05-10T13:24:07;97451.69;;;18.76;44.63
34297;BME280;20564;42.902;25.336;2023-05-10T13:26:36;97451.47;;;18.77;43.51
34297;BME280;20564;42.902;25.336;2023-05-10T13:29:04;97449.38;;;18.73;41.46
34297;BME280;20564;42.902;25.336;2023-05-10T13:31:32;97444.75;;;18.37;43.16
34297;BME280;20564;42.902;25.336;2023-05-10T13:33:59;97437.94;;;18.20;43.64
34297;BME280;20564;42.902;25.336;2023-05-10T13:36:26;97426.53;;;18.11;43.20
34297;BME280;20564;42.902;25.336;2023-05-10T13:38:53;97426.66;;;18.33;43.70
34297;BME280;20564;42.902;25.336;2023-05-10T13:41:20;97418.66;;;18.18;42.72
34297;BME280;20564;42.902;25.336;2023-05-10T13:43:47;97425.06;;;18.08;43.64